logo
Search for airport 
image banner adimage banner adimage banner ad
image banner ad

VVBM - Buon Ma Thuot Airport

Located in Buon Ma Thuot, Viet Nam

ICAO - VVBM, IATA - BMV

Data provided by Airmate  

General information

Coordinates: N12°40'6" E108°7'0"
Elevation is 1739 feet MSL.
 
View others Airports in Dac Lac

Operational data

Special qualification required
Current time UTC:
Current local time:
Weather at : - ( 0 km )
METAR: K40B 171416Z AUTO 23006G17KT 100V310 25/19 A2973 RMK AO1 SLP059 T02500186 50000
View NOTAMs / SUP AIP / TFR affecting this airport [VIEW]
Communications frequencies: [VIEW]

Runways:

RWY identifierQFULength (ft)Width (ft)SurfaceLDA (ft)
0991°9843148ASP
27271°9843148ASP

Airport contact information

Address: Buon Ma Thuot Viet Nam

Satellite view of VVBM